createdAt,value
2023-02-13T00:00:25.638Z,27.23
2023-02-13T00:02:52.788Z,29.93
2023-02-13T00:05:20.272Z,27.77
2023-02-13T00:07:47.457Z,27.63
2023-02-13T00:10:14.985Z,26.70
2023-02-13T00:16:57.905Z,23.47
2023-02-13T00:19:25.062Z,21.40
2023-02-13T00:21:52.190Z,18.50
2023-02-13T00:24:19.390Z,18.50
2023-02-13T00:26:46.480Z,18.60
2023-02-13T00:29:13.617Z,18.13
2023-02-13T00:31:41.257Z,20.00
2023-02-13T00:34:08.535Z,19.43
2023-02-13T00:36:36.035Z,17.07
2023-02-13T00:39:06.197Z,17.63
2023-02-13T00:41:33.555Z,17.73
2023-02-13T00:44:00.707Z,17.97
2023-02-13T00:46:28.096Z,18.60
2023-02-13T00:48:55.326Z,17.53
2023-02-13T00:51:22.488Z,19.97
2023-02-13T00:53:49.733Z,15.87
2023-02-13T00:56:17.320Z,17.03
2023-02-13T00:58:45.136Z,15.33
2023-02-13T01:06:37.270Z,15.80
2023-02-13T01:13:16.936Z,16.53
2023-02-13T01:15:44.957Z,17.67
2023-02-13T01:18:17.973Z,15.60
2023-02-13T01:20:46.461Z,16.70
2023-02-13T01:23:13.637Z,18.10
2023-02-13T01:25:43.782Z,15.67
2023-02-13T01:28:11.072Z,16.47
2023-02-13T01:30:38.459Z,16.43
2023-02-13T01:33:05.662Z,17.10
2023-02-13T01:35:32.761Z,16.53
2023-02-13T01:37:59.884Z,18.00
2023-02-13T01:40:30.141Z,16.23
2023-02-13T01:42:57.321Z,15.77
2023-02-13T01:45:31.209Z,16.20
2023-02-13T01:48:07.419Z,14.67
2023-02-13T01:50:48.993Z,16.43
2023-02-13T01:53:29.854Z,14.07
2023-02-13T01:56:07.305Z,13.83
2023-02-13T01:58:39.808Z,13.17
2023-02-13T02:01:09.103Z,13.73
2023-02-13T02:03:51.483Z,14.23
2023-02-13T02:06:34.839Z,15.17
2023-02-13T02:09:17.028Z,13.87
2023-02-13T02:12:11.950Z,11.00
2023-02-13T02:14:41.721Z,14.97
2023-02-13T02:17:12.045Z,17.03
2023-02-13T02:20:29.003Z,17.70
2023-02-13T02:23:36.617Z,12.70
2023-02-13T02:26:16.019Z,14.53
2023-02-13T02:29:11.064Z,15.03
2023-02-13T02:32:02.209Z,12.90
2023-02-13T02:34:44.251Z,12.17
2023-02-13T02:37:23.112Z,14.10
2023-02-13T02:39:52.726Z,16.47
2023-02-13T02:42:59.710Z,14.23
2023-02-13T02:45:38.823Z,14.43
2023-02-13T02:48:48.124Z,14.77
2023-02-13T02:51:29.481Z,12.97
2023-02-13T02:54:31.911Z,13.93
2023-02-13T02:57:21.971Z,13.37
2023-02-13T03:00:11.135Z,13.70
2023-02-13T03:02:56.876Z,14.47
2023-02-13T03:05:51.319Z,13.47
2023-02-13T03:08:39.144Z,14.83
2023-02-13T03:11:25.953Z,16.63
2023-02-13T03:13:55.852Z,16.07
2023-02-13T03:21:44.356Z,13.47
2023-02-13T03:24:28.334Z,13.17
2023-02-13T03:27:11.924Z,14.83
2023-02-13T03:30:11.516Z,16.40
2023-02-13T03:33:54.015Z,14.43
2023-02-13T03:36:42.503Z,14.23
2023-02-13T03:39:15.887Z,15.70
2023-02-13T03:41:55.264Z,14.57
2023-02-13T03:44:41.943Z,15.40
2023-02-13T03:47:11.736Z,15.23
2023-02-13T03:50:08.065Z,16.57
2023-02-13T03:52:55.952Z,19.87
2023-02-13T03:55:56.210Z,18.93
2023-02-13T03:58:59.631Z,17.47
2023-02-13T04:01:32.110Z,16.40
2023-02-13T04:04:26.659Z,17.37
2023-02-13T04:07:05.356Z,16.03
2023-02-13T04:09:37.265Z,18.80
2023-02-13T04:12:31.971Z,18.47
2023-02-13T04:15:14.260Z,17.23
2023-02-13T04:18:11.116Z,15.67
2023-02-13T04:20:39.836Z,17.40
2023-02-13T04:23:13.323Z,16.90
2023-02-13T04:25:45.312Z,16.67
2023-02-13T04:28:12.499Z,20.83
2023-02-13T04:30:39.742Z,18.90
2023-02-13T04:37:19.332Z,19.13
2023-02-13T04:39:46.565Z,16.87
2023-02-13T04:42:13.744Z,16.43
2023-02-13T04:44:40.891Z,18.07
2023-02-13T04:47:08.337Z,17.67
2023-02-13T04:49:35.605Z,22.80
2023-02-13T04:52:02.843Z,19.47
2023-02-13T04:54:29.908Z,20.10
2023-02-13T04:56:56.965Z,22.70
2023-02-13T04:59:24.034Z,20.93
2023-02-13T05:01:51.198Z,18.23
2023-02-13T05:04:18.301Z,19.70
2023-02-13T05:06:45.473Z,22.13
2023-02-13T05:09:12.711Z,20.67
2023-02-13T05:11:41.794Z,21.30
2023-02-13T05:14:10.718Z,21.63
2023-02-13T05:16:38.528Z,23.73
2023-02-13T05:19:05.646Z,22.67
2023-02-13T05:21:51.336Z,23.70
2023-02-13T05:24:20.458Z,20.20
2023-02-13T05:26:47.899Z,24.63
2023-02-13T05:29:22.627Z,19.80
2023-02-13T05:31:56.936Z,21.50
2023-02-13T05:34:27.103Z,21.87
2023-02-13T05:37:53.645Z,20.37
2023-02-13T05:40:22.704Z,22.10
2023-02-13T05:42:54.110Z,20.57
2023-02-13T05:45:21.189Z,20.50
2023-02-13T05:47:48.337Z,22.27
2023-02-13T05:50:15.616Z,20.57
2023-02-13T05:52:42.762Z,22.00
2023-02-13T05:55:09.820Z,20.50
2023-02-13T05:57:37.059Z,19.30
2023-02-13T06:00:05.807Z,20.93
2023-02-13T06:02:33.243Z,21.50
2023-02-13T06:05:00.441Z,20.47
2023-02-13T06:07:27.560Z,20.63
2023-02-13T06:09:54.605Z,21.47
2023-02-13T06:12:21.762Z,20.33
2023-02-13T06:14:48.861Z,19.47
2023-02-13T06:17:15.991Z,22.40
2023-02-13T06:19:43.079Z,20.63
2023-02-13T06:22:10.233Z,19.33
2023-02-13T06:24:37.325Z,20.37
2023-02-13T06:27:04.438Z,19.33
2023-02-13T06:29:33.127Z,20.13
2023-02-13T06:32:00.397Z,21.60
2023-02-13T06:34:27.589Z,16.93
2023-02-13T06:36:54.754Z,19.50
2023-02-13T06:39:21.995Z,18.50
2023-02-13T06:41:49.168Z,16.53
2023-02-13T06:44:16.340Z,16.90
2023-02-13T06:46:43.691Z,17.23
2023-02-13T06:49:10.906Z,18.97
2023-02-13T06:51:38.157Z,20.53
2023-02-13T06:54:05.275Z,19.43
2023-02-13T06:56:33.112Z,18.40
2023-02-13T06:59:00.586Z,19.60
2023-02-13T07:01:27.893Z,18.77
2023-02-13T07:03:55.206Z,19.40
2023-02-13T07:06:22.660Z,18.47
2023-02-13T07:08:55.417Z,18.90
2023-02-13T07:11:25.429Z,16.77
2023-02-13T07:13:52.616Z,18.97
2023-02-13T07:16:20.094Z,15.83
2023-02-13T07:18:47.270Z,17.87
2023-02-13T07:21:14.452Z,18.97
2023-02-13T07:23:41.655Z,20.10
2023-02-13T07:27:06.187Z,18.90
2023-02-13T07:29:33.425Z,20.27
2023-02-13T07:32:56.853Z,20.53
2023-02-13T07:35:25.034Z,23.30
2023-02-13T07:37:57.026Z,21.73
2023-02-13T07:40:24.166Z,21.73
2023-02-13T07:42:54.347Z,21.43
2023-02-13T07:45:21.644Z,22.10
2023-02-13T07:47:48.927Z,19.87
2023-02-13T07:50:16.287Z,20.87
2023-02-13T07:56:53.468Z,15.57
2023-02-13T08:03:20.546Z,18.73
2023-02-13T08:05:49.576Z,21.57
2023-02-13T08:08:17.395Z,19.47
2023-02-13T08:11:03.722Z,22.77
2023-02-13T08:14:28.266Z,16.77
2023-02-13T08:16:56.030Z,20.63
2023-02-13T08:19:23.343Z,18.63
2023-02-13T08:21:50.468Z,21.37
2023-02-13T08:24:19.065Z,16.87
2023-02-13T08:27:24.814Z,23.50
2023-02-13T08:29:52.162Z,20.63
2023-02-13T08:32:19.340Z,20.53
2023-02-13T08:34:47.645Z,21.40
2023-02-13T08:37:15.270Z,23.33
2023-02-13T08:39:45.718Z,23.17
2023-02-13T08:42:15.779Z,22.67
2023-02-13T08:44:43.586Z,22.20
2023-02-13T08:47:10.886Z,22.17
2023-02-13T08:49:38.125Z,21.17
2023-02-13T08:52:06.065Z,21.13
2023-02-13T08:58:46.491Z,23.40
2023-02-13T09:01:13.970Z,23.07
2023-02-13T09:07:51.349Z,21.33
2023-02-13T09:10:19.188Z,23.57
2023-02-13T09:12:53.539Z,20.27
2023-02-13T09:19:30.577Z,21.80
2023-02-13T09:21:58.421Z,22.80
2023-02-13T09:24:26.234Z,18.77
2023-02-13T09:31:21.573Z,21.23
2023-02-13T09:33:50.599Z,20.17
2023-02-13T09:36:57.814Z,19.53
2023-02-13T09:39:25.612Z,19.23
2023-02-13T09:41:56.003Z,21.57
2023-02-13T09:44:48.132Z,20.17
2023-02-13T09:47:37.608Z,19.47
2023-02-13T09:50:33.607Z,21.60
2023-02-13T09:53:57.300Z,20.00
2023-02-13T09:57:25.800Z,19.27
2023-02-13T10:00:13.963Z,17.17
2023-02-13T10:02:59.612Z,17.07
2023-02-13T10:05:55.021Z,19.40
2023-02-13T10:08:53.090Z,17.97
2023-02-13T10:11:53.388Z,19.30
2023-02-13T10:19:04.934Z,15.70
2023-02-13T10:26:22.285Z,15.93
2023-02-13T10:33:36.180Z,16.30
2023-02-13T10:36:17.234Z,15.63
2023-02-13T10:38:56.246Z,15.77
2023-02-13T10:41:52.036Z,15.30
2023-02-13T10:44:47.276Z,16.33
2023-02-13T10:47:56.211Z,17.50
2023-02-13T10:50:48.535Z,15.13
2023-02-13T10:53:27.364Z,15.87
2023-02-13T10:56:18.742Z,16.03
2023-02-13T10:59:13.607Z,16.20
2023-02-13T11:01:57.828Z,14.10
2023-02-13T11:04:25.359Z,14.87
2023-02-13T11:07:04.910Z,14.37
2023-02-13T11:09:41.802Z,15.20
2023-02-13T11:12:34.001Z,14.77
2023-02-13T11:15:07.528Z,15.97
2023-02-13T11:17:44.280Z,14.03
2023-02-13T11:20:32.284Z,13.87
2023-02-13T11:23:31.571Z,13.20
2023-02-13T11:26:55.193Z,14.00
2023-02-13T11:29:29.349Z,14.23
2023-02-13T11:32:17.338Z,14.20
2023-02-13T11:38:44.683Z,12.13
2023-02-13T11:41:20.567Z,13.27
2023-02-13T11:52:38.031Z,11.70
2023-02-13T11:59:05.801Z,11.77
2023-02-13T12:01:33.553Z,13.10
2023-02-13T12:04:16.584Z,11.10
2023-02-13T12:07:21.491Z,12.20
2023-02-13T12:10:02.101Z,12.27
2023-02-13T12:13:04.831Z,13.40
2023-02-13T12:15:36.879Z,12.70
2023-02-13T12:18:29.436Z,12.20
2023-02-13T12:21:22.799Z,11.47
2023-02-13T12:24:13.103Z,11.50
2023-02-13T12:27:10.176Z,11.87
2023-02-13T12:30:12.420Z,11.87
2023-02-13T12:33:17.360Z,11.87
2023-02-13T12:36:30.755Z,13.67
2023-02-13T12:39:37.259Z,13.43
2023-02-13T12:46:49.499Z,11.47
2023-02-13T12:49:19.568Z,10.97
2023-02-13T12:52:11.704Z,10.83
2023-02-13T12:55:23.573Z,11.07
2023-02-13T12:58:43.852Z,11.30
2023-02-13T13:01:25.289Z,11.13
2023-02-13T13:04:18.228Z,11.40
2023-02-13T13:07:22.823Z,10.13
2023-02-13T13:10:22.977Z,13.10
2023-02-13T13:13:32.612Z,9.63
2023-02-13T13:16:21.675Z,10.77
2023-02-13T13:18:56.510Z,10.20
2023-02-13T13:22:01.725Z,10.63
2023-02-13T13:24:53.509Z,10.40
2023-02-13T13:27:52.860Z,10.23
2023-02-13T13:30:35.365Z,10.67
2023-02-13T13:33:20.761Z,10.47
2023-02-13T13:36:34.522Z,10.73
2023-02-13T13:39:31.779Z,9.90
2023-02-13T13:42:35.625Z,9.90
2023-02-13T13:45:41.281Z,10.20
2023-02-13T13:49:18.171Z,10.43
2023-02-13T13:51:45.362Z,9.87
2023-02-13T13:54:12.367Z,8.80
2023-02-13T13:56:54.889Z,9.83
2023-02-13T13:59:34.218Z,11.00
2023-02-13T14:02:19.864Z,11.13
2023-02-13T14:05:28.998Z,10.30
2023-02-13T14:08:07.246Z,10.93
2023-02-13T14:10:34.294Z,10.27
2023-02-13T14:13:07.989Z,9.30
2023-02-13T14:15:42.518Z,9.63
2023-02-13T14:18:15.754Z,10.53
2023-02-13T14:20:52.459Z,10.20
2023-02-13T14:23:53.395Z,10.20
2023-02-13T14:26:33.643Z,10.30
2023-02-13T14:29:26.696Z,9.83
2023-02-13T14:32:07.138Z,10.20
2023-02-13T14:34:39.530Z,10.33
2023-02-13T14:37:24.320Z,9.57
2023-02-13T14:44:02.363Z,8.33
2023-02-13T14:51:00.382Z,8.83
2023-02-13T14:53:45.147Z,9.50
2023-02-13T14:56:19.095Z,8.03
2023-02-13T14:59:18.140Z,8.40
2023-02-13T15:01:53.163Z,9.17
2023-02-13T15:04:52.023Z,9.07
2023-02-13T15:11:46.104Z,9.33
2023-02-13T15:14:20.052Z,9.67
2023-02-13T15:20:48.445Z,9.93
2023-02-13T15:23:28.759Z,8.43
2023-02-13T15:26:08.043Z,8.10
2023-02-13T15:28:36.915Z,8.80
2023-02-13T15:35:39.381Z,8.73
2023-02-13T15:38:39.513Z,10.83
2023-02-13T15:41:18.893Z,10.10
2023-02-13T15:43:50.618Z,10.50
2023-02-13T15:50:34.679Z,10.20
2023-02-13T15:53:06.346Z,10.93
2023-02-13T15:55:36.821Z,11.97
2023-02-13T15:58:04.794Z,12.43
2023-02-13T16:00:36.315Z,10.77
2023-02-13T16:03:12.805Z,11.53
2023-02-13T16:09:49.730Z,11.23
2023-02-13T16:12:28.985Z,11.67
2023-02-13T16:15:03.013Z,13.07
2023-02-13T16:17:49.320Z,12.30
2023-02-13T16:20:24.038Z,11.83
2023-02-13T16:22:59.375Z,12.17
2023-02-13T16:25:47.152Z,13.47
2023-02-13T16:28:25.818Z,12.57
2023-02-13T16:31:03.251Z,11.90
2023-02-13T16:33:49.828Z,12.30
2023-02-13T16:36:25.866Z,12.43
2023-02-13T16:43:34.819Z,11.43
2023-02-13T16:46:19.927Z,12.20
2023-02-13T16:48:57.828Z,10.57
2023-02-13T16:51:39.955Z,11.47
2023-02-13T16:54:25.865Z,10.63
2023-02-13T16:57:14.086Z,12.50
2023-02-13T17:03:54.356Z,12.53
2023-02-13T17:10:34.105Z,14.03
2023-02-13T17:17:21.397Z,14.33
2023-02-13T17:19:49.356Z,15.73
2023-02-13T17:22:43.155Z,14.60
2023-02-13T17:25:18.964Z,14.43
2023-02-13T17:27:46.663Z,15.23
2023-02-13T17:30:26.544Z,15.90
2023-02-13T17:33:18.172Z,15.07
2023-02-13T17:35:45.264Z,15.17
2023-02-13T17:38:12.404Z,16.23
2023-02-13T17:41:00.753Z,14.80
2023-02-13T17:43:29.120Z,14.27
2023-02-13T17:45:56.427Z,15.87
2023-02-13T17:48:24.275Z,18.93
2023-02-13T17:50:51.834Z,17.63
2023-02-13T17:53:30.112Z,14.67
2023-02-13T17:55:57.339Z,16.07
2023-02-13T17:58:24.628Z,13.53
2023-02-13T18:02:07.282Z,14.97
2023-02-13T18:04:34.547Z,14.03
2023-02-13T18:08:20.363Z,13.50
2023-02-13T18:10:47.544Z,16.70
2023-02-13T18:13:14.915Z,14.27
2023-02-13T18:15:45.114Z,15.70
2023-02-13T18:18:16.152Z,16.23
2023-02-13T18:21:02.174Z,16.13
2023-02-13T18:23:29.406Z,17.17
2023-02-13T18:26:10.199Z,20.53
2023-02-13T18:28:38.246Z,22.53
2023-02-13T18:31:05.629Z,21.23
2023-02-13T18:33:32.948Z,20.50
2023-02-13T18:36:02.593Z,25.93
2023-02-13T18:38:30.158Z,22.00
2023-02-13T18:40:57.570Z,26.13
2023-02-13T18:43:24.986Z,23.80
2023-02-13T18:45:52.175Z,26.73
2023-02-13T18:48:23.590Z,28.37
2023-02-13T18:50:50.980Z,34.00
2023-02-13T18:53:18.152Z,30.33
2023-02-13T18:55:45.470Z,42.47
2023-02-13T18:58:12.745Z,31.20
2023-02-13T19:00:39.910Z,33.70
2023-02-13T19:03:07.080Z,27.03
2023-02-13T19:05:34.276Z,47.33
2023-02-13T19:08:57.541Z,43.00
2023-02-13T19:11:26.991Z,52.63
2023-02-13T19:13:58.801Z,64.73
2023-02-13T19:16:27.497Z,50.97
2023-02-13T19:18:59.886Z,58.93
2023-02-13T19:21:30.625Z,45.13
2023-02-13T19:23:57.855Z,40.97
2023-02-13T19:26:44.888Z,41.17
2023-02-13T19:29:11.935Z,40.93
2023-02-13T19:31:58.110Z,38.83
2023-02-13T19:34:25.460Z,40.60
2023-02-13T19:36:52.648Z,38.10
2023-02-13T19:39:19.803Z,34.20
2023-02-13T19:41:46.901Z,33.57
2023-02-13T19:44:33.076Z,29.83
2023-02-13T19:47:00.395Z,32.10
2023-02-13T19:49:27.571Z,28.73
2023-02-13T19:51:55.200Z,30.73
2023-02-13T19:54:22.299Z,29.37
2023-02-13T19:56:49.531Z,33.03
2023-02-13T19:59:16.777Z,35.40
2023-02-13T20:01:44.106Z,39.87
2023-02-13T20:04:12.357Z,39.20
2023-02-13T20:06:42.035Z,34.77
2023-02-13T20:12:29.677Z,29.67
2023-02-13T20:14:57.074Z,29.07
2023-02-13T20:17:24.343Z,26.57
2023-02-13T20:19:51.780Z,31.03
2023-02-13T20:22:19.601Z,26.10
2023-02-13T20:24:47.307Z,26.33
2023-02-13T20:27:14.942Z,24.83
2023-02-13T20:29:43.043Z,23.80
2023-02-13T20:32:10.459Z,25.67
2023-02-13T20:34:58.140Z,34.23
2023-02-13T20:37:28.367Z,27.03
2023-02-13T20:39:55.537Z,28.30
2023-02-13T20:42:22.764Z,29.33
2023-02-13T20:44:50.070Z,27.77
2023-02-13T20:47:17.477Z,28.33
2023-02-13T20:58:45.987Z,24.53
2023-02-13T21:01:16.911Z,32.60
2023-02-13T21:03:45.248Z,24.23
2023-02-13T21:06:12.736Z,25.00
2023-02-13T21:08:43.133Z,23.07
2023-02-13T21:15:19.887Z,22.43
2023-02-13T21:17:47.171Z,21.27
2023-02-13T21:24:20.420Z,21.23
2023-02-13T21:26:51.929Z,20.37
2023-02-13T21:29:20.002Z,22.03
2023-02-13T21:31:47.980Z,22.50
2023-02-13T21:34:17.730Z,23.67
2023-02-13T21:36:45.552Z,26.57
2023-02-13T21:39:14.340Z,26.77
2023-02-13T21:41:43.943Z,26.30
2023-02-13T21:44:16.717Z,30.83
2023-02-13T21:46:45.428Z,27.70
2023-02-13T21:49:17.070Z,25.83
2023-02-13T21:52:03.048Z,24.33
2023-02-13T21:54:30.233Z,27.13
2023-02-13T21:56:57.378Z,26.00
2023-02-13T21:59:24.722Z,24.00
2023-02-13T22:01:52.800Z,24.77
2023-02-13T22:04:20.271Z,23.60
2023-02-13T22:06:51.323Z,21.67
2023-02-13T22:09:22.407Z,22.97
2023-02-13T22:11:51.939Z,22.13
2023-02-13T22:14:19.660Z,22.30
2023-02-13T22:16:51.648Z,21.77
2023-02-13T22:19:20.568Z,18.57
2023-02-13T22:21:47.856Z,23.27
2023-02-13T22:24:15.366Z,23.83
2023-02-13T22:26:45.437Z,22.13
2023-02-13T22:29:15.593Z,20.80
2023-02-13T22:31:43.055Z,21.37
2023-02-13T22:38:20.317Z,22.07
2023-02-13T22:40:47.595Z,21.73
2023-02-13T22:43:14.712Z,22.50
2023-02-13T22:45:41.802Z,23.07
2023-02-13T22:52:18.747Z,22.00
2023-02-13T22:54:46.430Z,21.70
2023-02-13T22:57:13.618Z,23.40
2023-02-13T22:59:40.797Z,24.03
2023-02-13T23:02:08.102Z,23.57
2023-02-13T23:04:36.199Z,20.07
2023-02-13T23:07:06.574Z,22.13
2023-02-13T23:09:33.743Z,22.07
2023-02-13T23:17:06.832Z,21.20
2023-02-13T23:19:33.978Z,19.43
2023-02-13T23:22:01.587Z,18.07
2023-02-13T23:24:30.674Z,17.83
2023-02-13T23:26:59.323Z,19.03
2023-02-13T23:29:27.247Z,15.43
2023-02-13T23:31:54.509Z,15.07
2023-02-13T23:34:22.642Z,16.67
2023-02-13T23:36:49.906Z,16.73
2023-02-13T23:39:17.265Z,16.17
2023-02-13T23:45:54.142Z,13.17
2023-02-13T23:48:21.249Z,13.93
2023-02-13T23:54:48.416Z,14.23
2023-02-13T23:58:38.508Z,12.13
